createdAt,value
2022-07-27T00:01:51.335Z,99.90
2022-07-27T00:04:19.886Z,99.90
2022-07-27T00:06:47.939Z,99.90
2022-07-27T00:09:15.376Z,99.90
2022-07-27T00:11:42.423Z,99.90
2022-07-27T00:14:09.298Z,99.90
2022-07-27T00:16:36.284Z,99.90
2022-07-27T00:19:03.526Z,99.90
2022-07-27T00:21:30.453Z,99.90
2022-07-27T00:23:58.427Z,99.90
2022-07-27T00:26:25.275Z,99.90
2022-07-27T00:28:52.137Z,99.90
2022-07-27T00:31:19.152Z,99.90
2022-07-27T00:33:46.444Z,99.90
2022-07-27T00:36:13.488Z,99.90
2022-07-27T00:38:40.348Z,99.90
2022-07-27T00:41:07.396Z,99.90
2022-07-27T00:43:50.535Z,99.90
2022-07-27T00:46:17.605Z,99.90
2022-07-27T00:48:44.475Z,99.90
2022-07-27T00:51:14.073Z,99.90
2022-07-27T00:53:41.159Z,99.90
2022-07-27T00:56:08.165Z,99.90
2022-07-27T00:58:37.015Z,99.90
2022-07-27T01:01:04.355Z,99.90
2022-07-27T01:03:31.618Z,99.90
2022-07-27T01:05:59.303Z,99.90
2022-07-27T01:08:29.044Z,99.90
2022-07-27T01:10:57.654Z,99.90
2022-07-27T01:13:29.607Z,99.90
2022-07-27T01:15:57.582Z,99.90
2022-07-27T01:18:36.130Z,99.90
2022-07-27T01:21:06.031Z,99.90
2022-07-27T01:23:33.131Z,99.90
2022-07-27T01:26:04.129Z,99.90
2022-07-27T01:28:31.155Z,99.90
2022-07-27T01:30:58.193Z,99.90
2022-07-27T01:33:27.902Z,99.90
2022-07-27T01:35:56.456Z,99.90
2022-07-27T01:38:23.779Z,99.90
2022-07-27T01:40:51.911Z,99.90
2022-07-27T01:43:19.342Z,99.90
2022-07-27T01:45:46.330Z,99.90
2022-07-27T01:48:13.258Z,99.90
2022-07-27T01:50:40.400Z,99.90
2022-07-27T01:53:11.667Z,99.90
2022-07-27T01:55:39.314Z,99.90
2022-07-27T01:58:07.377Z,99.90
2022-07-27T02:00:34.786Z,99.90
2022-07-27T02:03:02.731Z,99.90
2022-07-27T02:05:29.710Z,99.90
2022-07-27T02:07:56.814Z,99.90
2022-07-27T02:10:24.074Z,99.90
2022-07-27T02:12:51.851Z,99.90
2022-07-27T02:15:22.884Z,99.90
2022-07-27T02:17:52.895Z,99.90
2022-07-27T02:20:21.555Z,99.90
2022-07-27T02:22:48.449Z,99.90
2022-07-27T02:25:17.254Z,99.90
2022-07-27T02:27:44.951Z,99.90
2022-07-27T02:30:13.510Z,99.90
2022-07-27T02:32:44.119Z,99.90
2022-07-27T02:35:18.292Z,99.90
2022-07-27T02:37:48.053Z,99.90
2022-07-27T02:40:17.464Z,99.90
2022-07-27T02:42:46.025Z,99.90
2022-07-27T02:45:14.428Z,99.90
2022-07-27T02:47:41.596Z,99.90
2022-07-27T02:50:09.851Z,99.90
2022-07-27T02:52:37.693Z,99.90
2022-07-27T02:55:05.397Z,99.90
2022-07-27T02:57:34.370Z,99.90
2022-07-27T03:00:05.367Z,99.90
2022-07-27T03:02:32.278Z,99.90
2022-07-27T03:04:59.184Z,99.90
2022-07-27T03:07:26.077Z,99.90
2022-07-27T03:09:54.074Z,99.90
2022-07-27T03:12:20.963Z,99.90
2022-07-27T03:14:47.694Z,99.90
2022-07-27T03:17:15.292Z,99.90
2022-07-27T03:19:43.319Z,99.90
2022-07-27T03:22:10.471Z,99.90
2022-07-27T03:24:37.327Z,99.90
2022-07-27T03:27:04.335Z,99.90
2022-07-27T03:29:31.287Z,99.90
2022-07-27T03:31:58.131Z,99.90
2022-07-27T03:34:24.978Z,99.90
2022-07-27T03:36:51.818Z,99.90
2022-07-27T03:39:18.736Z,99.90
2022-07-27T03:41:45.561Z,99.90
2022-07-27T03:44:12.382Z,99.90
2022-07-27T03:46:39.197Z,99.90
2022-07-27T03:49:14.462Z,99.90
2022-07-27T03:51:42.184Z,99.90
2022-07-27T03:54:09.293Z,99.90
2022-07-27T03:56:36.348Z,99.90
2022-07-27T03:59:03.119Z,99.90
2022-07-27T04:01:30.073Z,99.90
2022-07-27T04:03:57.991Z,99.90
2022-07-27T04:06:25.655Z,99.90
2022-07-27T04:08:57.561Z,99.90
2022-07-27T04:11:29.648Z,99.90
2022-07-27T04:13:56.715Z,99.90
2022-07-27T04:16:24.171Z,99.90
2022-07-27T04:18:53.310Z,99.90
2022-07-27T04:21:20.419Z,99.90
2022-07-27T04:23:47.262Z,99.90
2022-07-27T04:26:14.242Z,99.90
2022-07-27T04:28:42.118Z,99.90
2022-07-27T04:31:08.984Z,99.90
2022-07-27T04:33:35.971Z,99.90
2022-07-27T04:36:02.906Z,99.90
2022-07-27T04:38:29.785Z,99.90
2022-07-27T04:40:58.523Z,99.90
2022-07-27T04:43:25.509Z,99.90
2022-07-27T04:45:56.627Z,99.90
2022-07-27T04:48:23.685Z,99.90
2022-07-27T04:50:53.107Z,99.90
2022-07-27T04:53:20.903Z,99.90
2022-07-27T04:55:47.791Z,99.90
2022-07-27T04:58:15.603Z,99.90
2022-07-27T05:00:43.460Z,99.90
2022-07-27T05:03:10.632Z,99.90
2022-07-27T05:05:37.599Z,99.90
2022-07-27T05:08:04.758Z,99.90
2022-07-27T05:10:31.674Z,99.90
2022-07-27T05:12:58.450Z,99.90
2022-07-27T05:15:25.464Z,99.90
2022-07-27T05:17:52.415Z,99.90
2022-07-27T05:20:19.315Z,99.90
2022-07-27T05:22:46.214Z,99.90
2022-07-27T05:25:13.068Z,99.90
2022-07-27T05:27:53.757Z,99.90
2022-07-27T05:30:23.454Z,99.90
2022-07-27T05:32:50.255Z,99.90
2022-07-27T05:35:17.451Z,99.90
2022-07-27T05:37:44.277Z,99.90
2022-07-27T05:40:12.213Z,99.90
2022-07-27T05:42:42.046Z,99.90
2022-07-27T05:45:09.457Z,99.90
2022-07-27T05:47:36.534Z,99.90
2022-07-27T05:50:04.059Z,99.90
2022-07-27T05:52:31.108Z,99.90
2022-07-27T05:54:58.307Z,99.90
2022-07-27T05:57:25.215Z,99.90
2022-07-27T05:59:54.506Z,99.90
2022-07-27T06:02:21.707Z,99.90
2022-07-27T06:04:48.534Z,99.90
2022-07-27T06:07:34.303Z,99.90
2022-07-27T06:10:01.314Z,99.90
2022-07-27T06:12:30.108Z,99.90
2022-07-27T06:14:57.219Z,99.90
2022-07-27T06:17:24.077Z,99.90
2022-07-27T06:19:50.953Z,99.90
2022-07-27T06:22:19.419Z,99.90
2022-07-27T06:24:46.415Z,99.90
2022-07-27T06:27:13.244Z,99.90
2022-07-27T06:29:40.116Z,99.90
2022-07-27T06:32:07.302Z,99.90
2022-07-27T06:34:42.370Z,99.90
2022-07-27T06:37:10.222Z,99.90
2022-07-27T06:39:37.006Z,99.90
2022-07-27T06:42:04.015Z,99.90
2022-07-27T06:44:30.799Z,99.90
2022-07-27T06:46:57.664Z,99.90
2022-07-27T06:49:24.576Z,99.90
2022-07-27T06:51:51.434Z,99.90
2022-07-27T06:54:18.360Z,99.90
2022-07-27T06:56:45.314Z,99.90
2022-07-27T06:59:12.478Z,99.90
2022-07-27T07:01:39.603Z,99.90
2022-07-27T07:04:06.775Z,99.90
2022-07-27T07:06:33.697Z,99.90
2022-07-27T07:09:00.565Z,99.90
2022-07-27T07:11:27.576Z,99.90
2022-07-27T07:13:55.350Z,99.90
2022-07-27T07:16:22.443Z,99.90
2022-07-27T07:18:52.439Z,99.90
2022-07-27T07:21:19.682Z,99.90
2022-07-27T07:23:46.494Z,99.90
2022-07-27T07:26:13.253Z,99.90
2022-07-27T07:28:40.091Z,99.90
2022-07-27T07:31:06.914Z,99.90
2022-07-27T07:33:33.796Z,99.90
2022-07-27T07:36:13.415Z,99.90
2022-07-27T07:38:42.682Z,99.90
2022-07-27T07:41:09.847Z,99.90
2022-07-27T07:43:38.597Z,99.90
2022-07-27T07:46:05.965Z,99.90
2022-07-27T07:48:32.989Z,99.90
2022-07-27T07:50:59.759Z,99.90
2022-07-27T07:53:26.626Z,99.90
2022-07-27T07:55:56.073Z,99.90
2022-07-27T07:58:22.894Z,99.90
2022-07-27T08:00:50.006Z,99.90
2022-07-27T08:03:19.285Z,99.90
2022-07-27T08:05:46.302Z,99.90
2022-07-27T08:08:13.396Z,99.90
2022-07-27T08:10:40.266Z,99.90
2022-07-27T08:13:07.367Z,99.90
2022-07-27T08:15:36.008Z,99.90
2022-07-27T08:18:05.079Z,99.90
2022-07-27T08:20:32.393Z,99.90
2022-07-27T08:23:01.039Z,99.90
2022-07-27T08:25:28.058Z,99.90
2022-07-27T08:27:56.096Z,99.90
2022-07-27T08:30:23.943Z,99.90
2022-07-27T08:32:59.695Z,99.90
2022-07-27T08:35:27.267Z,99.90
2022-07-27T08:37:55.058Z,99.90
2022-07-27T08:43:10.639Z,99.90
2022-07-27T08:45:38.107Z,99.90
2022-07-27T08:48:05.528Z,99.90
2022-07-27T08:50:34.513Z,99.90
2022-07-27T08:53:07.080Z,99.90
2022-07-27T08:55:44.976Z,99.90
2022-07-27T08:58:13.187Z,99.90
2022-07-27T09:00:46.817Z,99.90
2022-07-27T09:03:19.020Z,99.90
2022-07-27T09:05:53.205Z,99.90
2022-07-27T09:08:28.198Z,99.90
2022-07-27T09:10:57.986Z,99.90
2022-07-27T09:13:30.939Z,99.90
2022-07-27T09:16:21.932Z,99.90
2022-07-27T09:18:57.941Z,99.90
2022-07-27T09:21:25.075Z,99.90
2022-07-27T09:24:17.898Z,99.90
2022-07-27T09:27:02.057Z,99.90
2022-07-27T09:29:34.982Z,99.90
2022-07-27T09:32:14.433Z,99.90
2022-07-27T09:34:41.352Z,99.90
2022-07-27T09:37:09.683Z,99.90
2022-07-27T09:39:36.600Z,99.90
2022-07-27T09:42:03.499Z,99.90
2022-07-27T09:44:43.586Z,99.90
2022-07-27T09:47:22.939Z,99.90
2022-07-27T09:49:50.131Z,99.90
2022-07-27T09:52:27.907Z,99.90
2022-07-27T09:55:01.371Z,99.90
2022-07-27T09:57:28.267Z,99.90
2022-07-27T10:00:13.833Z,99.90
2022-07-27T10:02:42.758Z,99.90
2022-07-27T10:05:10.708Z,99.90
2022-07-27T10:07:38.342Z,99.90
2022-07-27T10:10:06.003Z,99.90
2022-07-27T10:12:33.195Z,99.90
2022-07-27T10:14:59.971Z,99.90
2022-07-27T10:17:27.401Z,99.90
2022-07-27T10:19:56.264Z,99.90
2022-07-27T10:22:48.902Z,99.90
2022-07-27T10:25:15.846Z,99.90
2022-07-27T10:27:45.687Z,99.90
2022-07-27T10:30:14.718Z,99.90
2022-07-27T10:32:44.696Z,99.90
2022-07-27T10:35:32.535Z,99.90
2022-07-27T10:38:15.306Z,99.90
2022-07-27T10:40:43.611Z,99.90
2022-07-27T10:43:21.531Z,99.90
2022-07-27T10:46:02.072Z,99.90
2022-07-27T10:48:37.802Z,99.90
2022-07-27T10:51:06.950Z,99.90
2022-07-27T10:54:09.781Z,99.90
2022-07-27T10:56:50.124Z,99.90
2022-07-27T10:59:51.234Z,99.90
2022-07-27T11:02:38.265Z,99.90
2022-07-27T11:05:05.616Z,99.90
2022-07-27T11:07:44.472Z,99.90
2022-07-27T11:10:12.962Z,99.90
2022-07-27T11:12:41.409Z,99.90
2022-07-27T11:15:08.820Z,99.90
2022-07-27T11:20:31.329Z,99.90
2022-07-27T11:23:49.777Z,99.90
2022-07-27T11:25:59.272Z,99.90
2022-07-27T11:28:33.355Z,99.90
2022-07-27T11:31:03.879Z,99.50
2022-07-27T11:33:31.349Z,99.90
2022-07-27T11:36:01.111Z,99.90
2022-07-27T11:38:28.174Z,99.60
2022-07-27T11:41:06.666Z,99.70
2022-07-27T11:43:45.483Z,99.90
2022-07-27T11:46:20.932Z,99.80
2022-07-27T11:49:17.983Z,98.20
2022-07-27T11:51:49.362Z,97.00
2022-07-27T11:54:21.682Z,97.10
2022-07-27T11:56:51.061Z,97.10
2022-07-27T11:59:27.114Z,96.60
2022-07-27T12:02:09.040Z,95.90
2022-07-27T12:04:38.363Z,96.00
2022-07-27T12:07:16.756Z,95.90
2022-07-27T12:09:45.849Z,95.80
2022-07-27T12:12:16.707Z,95.70
2022-07-27T12:14:51.923Z,95.70
2022-07-27T12:17:32.192Z,96.40
2022-07-27T12:20:06.678Z,97.20
2022-07-27T12:22:45.097Z,97.10
2022-07-27T12:25:29.546Z,97.60
2022-07-27T12:28:05.167Z,98.30
2022-07-27T12:30:33.561Z,97.80
2022-07-27T12:33:01.532Z,97.80
2022-07-27T12:35:36.223Z,97.30
2022-07-27T12:38:08.113Z,97.30
2022-07-27T12:40:43.271Z,96.60
2022-07-27T12:43:10.407Z,96.50
2022-07-27T12:45:38.905Z,96.10
2022-07-27T12:48:22.690Z,96.20
2022-07-27T12:51:01.894Z,96.40
2022-07-27T12:53:30.279Z,96.10
2022-07-27T12:56:00.089Z,95.30
2022-07-27T12:58:27.618Z,95.10
2022-07-27T13:00:55.204Z,95.90
2022-07-27T13:03:22.574Z,96.90
2022-07-27T13:05:49.769Z,97.20
2022-07-27T13:08:17.250Z,97.20
2022-07-27T13:10:44.845Z,96.80
2022-07-27T13:13:12.523Z,96.50
2022-07-27T13:15:40.244Z,95.60
2022-07-27T13:18:08.320Z,95.40
2022-07-27T13:20:35.751Z,96.00
2022-07-27T13:23:02.625Z,96.20
2022-07-27T13:25:29.493Z,96.10
2022-07-27T13:27:56.366Z,95.90
2022-07-27T13:30:24.509Z,95.90
2022-07-27T13:32:51.443Z,96.60
2022-07-27T13:35:18.388Z,96.30
2022-07-27T13:37:45.394Z,95.30
2022-07-27T13:40:13.398Z,93.30
2022-07-27T13:42:40.199Z,94.40
2022-07-27T13:45:10.400Z,94.70
2022-07-27T13:47:40.174Z,93.60
2022-07-27T13:50:15.098Z,92.30
2022-07-27T13:52:44.615Z,92.40
2022-07-27T13:55:14.029Z,90.70
2022-07-27T13:57:40.755Z,90.90
2022-07-27T14:00:08.183Z,91.10
2022-07-27T14:02:35.060Z,90.30
2022-07-27T14:05:02.564Z,90.30
2022-07-27T14:07:32.655Z,90.20
2022-07-27T14:10:18.012Z,85.90
2022-07-27T14:12:45.828Z,85.20
2022-07-27T14:15:12.806Z,86.00
2022-07-27T14:17:39.663Z,86.90
2022-07-27T14:20:07.289Z,88.30
2022-07-27T14:22:34.148Z,86.90
2022-07-27T14:25:00.927Z,85.00
2022-07-27T14:27:36.542Z,85.10
2022-07-27T14:30:08.503Z,83.30
2022-07-27T14:32:36.027Z,83.30
2022-07-27T14:35:04.779Z,82.40
2022-07-27T14:37:33.636Z,81.60
2022-07-27T14:40:01.298Z,81.00
2022-07-27T14:42:28.376Z,77.00
2022-07-27T14:44:55.149Z,77.50
2022-07-27T14:47:22.148Z,74.40
2022-07-27T14:49:48.982Z,73.50
2022-07-27T14:52:17.513Z,72.40
2022-07-27T14:54:46.671Z,70.80
2022-07-27T14:57:14.493Z,68.30
2022-07-27T14:59:41.713Z,68.30
2022-07-27T15:02:08.540Z,71.70
2022-07-27T15:04:35.591Z,74.70
2022-07-27T15:07:02.383Z,77.80
2022-07-27T15:09:31.984Z,79.80
2022-07-27T15:12:00.141Z,81.10
2022-07-27T15:14:27.885Z,82.40
2022-07-27T15:16:55.692Z,83.30
2022-07-27T15:19:22.735Z,84.70
2022-07-27T15:21:50.010Z,85.30
2022-07-27T15:24:16.954Z,85.00
2022-07-27T15:26:43.772Z,86.30
2022-07-27T15:29:14.954Z,86.30
2022-07-27T15:31:43.060Z,85.50
2022-07-27T15:34:10.414Z,85.90
2022-07-27T15:36:43.580Z,85.20
2022-07-27T15:39:13.423Z,84.00
2022-07-27T15:41:40.920Z,81.30
2022-07-27T15:44:07.947Z,79.80
2022-07-27T15:46:34.914Z,78.70
2022-07-27T15:49:02.014Z,79.60
2022-07-27T15:51:29.337Z,80.80
2022-07-27T15:53:57.055Z,79.50
2022-07-27T15:56:24.839Z,79.80
2022-07-27T15:58:51.806Z,79.70
2022-07-27T16:01:20.871Z,78.30
2022-07-27T16:03:49.163Z,78.90
2022-07-27T16:06:16.597Z,79.30
2022-07-27T16:08:46.374Z,80.90
2022-07-27T16:11:13.278Z,82.40
2022-07-27T16:13:40.260Z,82.70
2022-07-27T16:16:22.157Z,83.50
2022-07-27T16:18:51.169Z,84.10
2022-07-27T16:21:18.739Z,84.60
2022-07-27T16:23:45.675Z,85.50
2022-07-27T16:26:12.568Z,85.40
2022-07-27T16:28:43.423Z,86.30
2022-07-27T16:31:13.661Z,87.20
2022-07-27T16:33:43.977Z,86.10
2022-07-27T16:36:12.297Z,84.20
2022-07-27T16:38:47.624Z,85.40
2022-07-27T16:41:19.000Z,85.50
2022-07-27T16:43:46.330Z,84.80
2022-07-27T16:46:13.534Z,83.50
2022-07-27T16:48:42.604Z,83.60
2022-07-27T16:51:14.740Z,83.90
2022-07-27T16:53:45.901Z,83.30
2022-07-27T16:56:16.642Z,82.70
2022-07-27T16:58:44.462Z,83.30
2022-07-27T17:01:21.751Z,83.80
2022-07-27T17:03:54.440Z,84.40
2022-07-27T17:06:21.735Z,84.20
2022-07-27T17:08:51.276Z,84.60
2022-07-27T17:11:20.766Z,84.50
2022-07-27T17:13:49.238Z,86.10
2022-07-27T17:16:16.970Z,86.40
2022-07-27T17:18:43.847Z,87.40
2022-07-27T17:21:13.778Z,88.20
2022-07-27T17:23:41.865Z,89.60
2022-07-27T17:26:09.807Z,90.00
2022-07-27T17:28:39.361Z,90.20
2022-07-27T17:31:09.557Z,90.20
2022-07-27T17:33:37.636Z,90.10
2022-07-27T17:36:05.096Z,89.50
2022-07-27T17:38:32.856Z,88.80
2022-07-27T17:40:59.774Z,89.10
2022-07-27T17:43:26.526Z,89.30
2022-07-27T17:45:53.455Z,90.00
2022-07-27T17:48:20.484Z,90.60
2022-07-27T17:50:47.439Z,91.00
2022-07-27T17:53:14.285Z,91.00
2022-07-27T17:55:41.125Z,91.00
2022-07-27T17:58:07.877Z,91.40
2022-07-27T18:00:36.598Z,91.90
2022-07-27T18:03:05.268Z,92.00
2022-07-27T18:05:33.067Z,92.40
2022-07-27T18:07:59.916Z,92.60
2022-07-27T18:10:27.014Z,93.00
2022-07-27T18:12:54.026Z,93.50
2022-07-27T18:15:39.799Z,94.00
2022-07-27T18:18:06.650Z,94.40
2022-07-27T18:20:34.011Z,94.80
2022-07-27T18:23:01.045Z,95.10
2022-07-27T18:25:28.116Z,95.30
2022-07-27T18:27:55.006Z,95.70
2022-07-27T18:30:23.145Z,96.10
2022-07-27T18:32:50.112Z,96.40
2022-07-27T18:35:16.998Z,96.60
2022-07-27T18:37:44.498Z,96.90
2022-07-27T18:40:13.013Z,97.00
2022-07-27T18:42:40.184Z,97.00
2022-07-27T18:45:08.458Z,97.20
2022-07-27T18:47:36.305Z,97.40
2022-07-27T18:50:06.202Z,97.40
2022-07-27T18:52:33.577Z,97.30
2022-07-27T18:55:00.749Z,97.10
2022-07-27T18:57:27.747Z,97.20
2022-07-27T18:59:54.619Z,97.70
2022-07-27T19:02:23.194Z,97.60
2022-07-27T19:04:50.650Z,97.40
2022-07-27T19:07:18.573Z,97.50
2022-07-27T19:09:47.518Z,97.50
2022-07-27T19:12:14.369Z,97.50
2022-07-27T19:14:41.303Z,97.80
2022-07-27T19:17:10.863Z,97.80
2022-07-27T19:19:42.035Z,98.00
2022-07-27T19:22:08.893Z,98.20
2022-07-27T19:24:38.733Z,98.30
2022-07-27T19:27:06.702Z,98.60
2022-07-27T19:29:33.548Z,98.60
2022-07-27T19:32:00.545Z,98.80
2022-07-27T19:34:27.493Z,98.80
2022-07-27T19:36:55.434Z,99.00
2022-07-27T19:39:22.414Z,99.20
2022-07-27T19:41:50.253Z,99.40
2022-07-27T19:44:22.213Z,99.70
2022-07-27T19:46:49.318Z,99.50
2022-07-27T19:49:18.154Z,99.70
2022-07-27T19:51:45.349Z,99.90
2022-07-27T19:54:12.228Z,99.90
2022-07-27T19:56:39.045Z,99.90
2022-07-27T19:59:06.537Z,99.90
2022-07-27T20:01:35.148Z,99.90
2022-07-27T20:04:05.575Z,99.90
2022-07-27T20:06:32.703Z,99.90
2022-07-27T20:08:59.665Z,99.90
2022-07-27T20:11:29.878Z,99.90
2022-07-27T20:14:03.976Z,99.90
2022-07-27T20:16:34.289Z,99.90
2022-07-27T20:19:02.736Z,99.90
2022-07-27T20:21:36.889Z,99.90
2022-07-27T20:24:05.463Z,99.90
2022-07-27T20:26:32.840Z,99.90
2022-07-27T20:29:01.697Z,99.90
2022-07-27T20:31:32.357Z,99.90
2022-07-27T20:34:00.218Z,99.90
2022-07-27T20:36:32.331Z,99.90
2022-07-27T20:39:00.261Z,99.90
2022-07-27T20:41:30.234Z,99.90
2022-07-27T20:43:57.124Z,99.90
2022-07-27T20:46:23.998Z,99.90
2022-07-27T20:48:52.159Z,99.90
2022-07-27T20:51:20.116Z,99.90
2022-07-27T20:53:48.034Z,99.90
2022-07-27T20:56:15.031Z,99.90
2022-07-27T20:58:43.183Z,99.90
2022-07-27T21:01:10.159Z,99.90
2022-07-27T21:03:38.212Z,99.90
2022-07-27T21:06:05.096Z,99.90
2022-07-27T21:08:32.017Z,99.90
2022-07-27T21:10:59.006Z,99.90
2022-07-27T21:13:25.968Z,99.90
2022-07-27T21:15:56.047Z,99.90
2022-07-27T21:18:23.942Z,99.90
2022-07-27T21:20:50.703Z,99.90
2022-07-27T21:23:36.310Z,99.90
2022-07-27T21:26:03.189Z,99.90
2022-07-27T21:28:30.914Z,99.90
2022-07-27T21:30:59.088Z,99.90
2022-07-27T21:33:26.015Z,99.90
2022-07-27T21:35:54.901Z,99.90
2022-07-27T21:38:21.775Z,99.90
2022-07-27T21:40:48.694Z,99.90
2022-07-27T21:43:16.780Z,99.90
2022-07-27T21:45:47.933Z,99.90
2022-07-27T21:48:17.860Z,99.90
2022-07-27T21:50:44.687Z,99.90
2022-07-27T21:53:12.614Z,99.90
2022-07-27T21:55:40.824Z,99.90
2022-07-27T21:58:12.049Z,99.90
2022-07-27T22:00:39.404Z,99.90
2022-07-27T22:03:10.525Z,99.90
2022-07-27T22:05:43.410Z,99.90
2022-07-27T22:08:11.340Z,99.90
2022-07-27T22:10:38.723Z,99.90
2022-07-27T22:13:05.699Z,99.90
2022-07-27T22:15:33.475Z,99.90
2022-07-27T22:18:00.277Z,99.90
2022-07-27T22:20:28.075Z,99.90
2022-07-27T22:22:57.097Z,99.90
2022-07-27T22:25:25.083Z,99.90
2022-07-27T22:27:51.939Z,99.90
2022-07-27T22:30:18.822Z,99.90
2022-07-27T22:32:45.746Z,99.90
2022-07-27T22:35:12.554Z,99.90
2022-07-27T22:37:40.724Z,99.90
2022-07-27T22:40:08.530Z,99.90
2022-07-27T22:42:36.327Z,99.90
2022-07-27T22:45:03.466Z,99.90
2022-07-27T22:47:30.334Z,99.90
2022-07-27T22:49:57.136Z,99.90
2022-07-27T22:52:24.213Z,99.90
2022-07-27T22:54:51.247Z,99.90
2022-07-27T22:57:18.127Z,99.90
2022-07-27T22:59:45.005Z,99.90
2022-07-27T23:02:11.798Z,99.90
2022-07-27T23:04:38.633Z,99.90
2022-07-27T23:07:05.522Z,99.90
2022-07-27T23:09:32.387Z,99.90
2022-07-27T23:11:59.286Z,99.90
2022-07-27T23:14:26.164Z,99.90
2022-07-27T23:16:54.034Z,99.90
2022-07-27T23:19:20.950Z,99.90
2022-07-27T23:21:47.914Z,99.90
2022-07-27T23:24:15.769Z,99.90
2022-07-27T23:26:43.162Z,99.90
2022-07-27T23:29:09.938Z,99.90
2022-07-27T23:31:36.883Z,99.90
2022-07-27T23:34:03.892Z,99.90
2022-07-27T23:36:30.810Z,99.90
2022-07-27T23:38:57.633Z,99.90
2022-07-27T23:41:25.178Z,99.90
2022-07-27T23:43:53.077Z,99.90
2022-07-27T23:46:19.963Z,99.90
2022-07-27T23:48:46.950Z,99.90
2022-07-27T23:51:18.074Z,99.90
2022-07-27T23:53:45.708Z,99.90
2022-07-27T23:56:12.493Z,99.90
2022-07-27T23:58:39.324Z,99.90
